Bicknell, Indiana
Current Conditions -  °F | °C
As of 2:15 AM on Monday 26 Jan 2015 (Local Time) from KDCY Reporting Station
Overcast Overcast  
Wind Chill: 15°   Ceiling: 1500
Heat Index: 27°   Visibility: 10mi
Dew Point: 20°   Wind: 17mph
Humidity: 74%   Direction: 360°N
Pressure: 29.9"   Gusts: NA
Location:  38.77°N, 87.31°W
Report Text: KDCY 260815Z AUTO 36015KT 10SM OVC015 M03/M07 A2990 RMK AO2 T10261066
Loading
Personal Weather Stations






























Interactive Weather Map New forecast layout! Learn more

10-Day Weather Forecast

Advertisements
Track Severe Weather on mobile